createdAt,value
2023-01-10T00:01:13.476Z,3.90
2023-01-10T00:03:57.503Z,3.90
2023-01-10T00:06:33.577Z,3.80
2023-01-10T00:09:01.825Z,3.70
2023-01-10T00:11:47.351Z,3.90
2023-01-10T00:14:17.420Z,3.80
2023-01-10T00:16:45.746Z,3.90
2023-01-10T00:19:13.893Z,3.90
2023-01-10T00:21:42.083Z,3.80
2023-01-10T00:24:19.033Z,3.90
2023-01-10T00:26:51.254Z,3.70
2023-01-10T00:29:22.297Z,3.90
2023-01-10T00:31:50.628Z,3.90
2023-01-10T00:34:18.909Z,3.90
2023-01-10T00:36:47.976Z,3.80
2023-01-10T00:39:18.247Z,3.80
2023-01-10T00:42:03.733Z,3.80
2023-01-10T00:44:33.634Z,3.70
2023-01-10T00:47:01.904Z,2.90
2023-01-10T00:49:30.045Z,3.30
2023-01-10T00:51:59.778Z,3.80
2023-01-10T00:54:28.161Z,3.70
2023-01-10T00:56:56.488Z,3.40
2023-01-10T00:59:25.200Z,3.60
2023-01-10T01:01:54.905Z,3.50
2023-01-10T01:04:23.476Z,3.60
2023-01-10T01:06:51.690Z,3.60
2023-01-10T01:09:19.954Z,3.60
2023-01-10T01:11:48.320Z,3.80
2023-01-10T01:14:16.412Z,2.30
2023-01-10T01:16:44.749Z,4.00
2023-01-10T01:19:14.717Z,4.70
2023-01-10T01:21:43.122Z,3.90
2023-01-10T01:24:12.847Z,4.40
2023-01-10T01:26:42.658Z,3.70
2023-01-10T01:29:11.784Z,4.30
2023-01-10T01:31:40.042Z,3.00
2023-01-10T01:34:08.250Z,3.50
2023-01-10T01:36:38.111Z,3.60
2023-01-10T01:39:06.364Z,3.50
2023-01-10T01:41:51.826Z,3.80
2023-01-10T01:44:21.248Z,3.60
2023-01-10T01:46:53.452Z,3.60
2023-01-10T01:49:24.905Z,3.60
2023-01-10T01:52:00.500Z,3.70
2023-01-10T01:57:02.311Z,3.60
2023-01-10T01:59:35.527Z,3.70
2023-01-10T02:02:08.328Z,3.60
2023-01-10T02:04:42.249Z,3.70
2023-01-10T02:07:12.580Z,3.70
2023-01-10T02:09:45.745Z,3.80
2023-01-10T02:12:15.774Z,3.70
2023-01-10T02:14:46.219Z,3.70
2023-01-10T02:17:15.527Z,3.60
2023-01-10T02:19:52.703Z,3.60
2023-01-10T02:22:53.366Z,3.60
2023-01-10T02:25:41.498Z,3.80
2023-01-10T02:28:31.780Z,3.60
2023-01-10T02:31:32.255Z,3.40
2023-01-10T02:34:08.296Z,3.90
2023-01-10T02:36:45.573Z,3.70
2023-01-10T02:44:23.236Z,4.00
2023-01-10T02:46:52.048Z,3.80
2023-01-10T02:49:21.753Z,3.80
2023-01-10T02:51:49.960Z,3.80
2023-01-10T02:54:22.011Z,6.80
2023-01-10T02:57:14.929Z,3.70
2023-01-10T03:00:10.007Z,3.90
2023-01-10T03:03:01.722Z,3.90
2023-01-10T03:05:45.538Z,3.80
2023-01-10T03:08:26.107Z,3.70
2023-01-10T03:10:59.377Z,3.70
2023-01-10T03:13:31.541Z,5.40
2023-01-10T03:16:02.650Z,4.20
2023-01-10T03:18:35.061Z,3.70
2023-01-10T03:21:08.688Z,3.70
2023-01-10T03:23:37.224Z,3.70
2023-01-10T03:26:07.988Z,3.20
2023-01-10T03:28:42.614Z,3.70
2023-01-10T03:31:16.737Z,3.70
2023-01-10T03:33:45.893Z,3.70
2023-01-10T03:36:27.072Z,4.80
2023-01-10T03:38:57.529Z,3.70
2023-01-10T03:41:37.908Z,3.70
2023-01-10T03:44:34.958Z,3.80
2023-01-10T03:47:08.847Z,3.80
2023-01-10T03:49:41.405Z,3.80
2023-01-10T03:52:14.949Z,3.70
2023-01-10T03:54:43.913Z,3.80
2023-01-10T03:57:18.433Z,3.70
2023-01-10T03:59:47.071Z,3.50
2023-01-10T04:02:15.121Z,3.80
2023-01-10T04:04:43.302Z,3.70
2023-01-10T04:07:13.076Z,3.50
2023-01-10T04:09:41.252Z,3.60
2023-01-10T04:12:09.355Z,3.70
2023-01-10T04:14:37.621Z,3.70
2023-01-10T04:17:06.098Z,3.80
2023-01-10T04:19:34.543Z,3.70
2023-01-10T04:22:02.741Z,3.70
2023-01-10T04:24:32.622Z,3.70
2023-01-10T04:27:01.041Z,3.70
2023-01-10T04:29:29.302Z,3.90
2023-01-10T04:31:57.611Z,3.30
2023-01-10T04:34:25.870Z,4.30
2023-01-10T04:36:54.022Z,3.60
2023-01-10T04:39:22.250Z,3.50
2023-01-10T04:41:51.840Z,3.80
2023-01-10T04:44:20.187Z,3.80
2023-01-10T04:46:48.410Z,3.50
2023-01-10T04:49:16.566Z,4.10
2023-01-10T04:51:44.731Z,3.60
2023-01-10T04:54:12.832Z,3.70
2023-01-10T04:56:41.097Z,4.30
2023-01-10T04:59:12.340Z,3.60
2023-01-10T05:01:40.705Z,3.60
2023-01-10T05:04:11.956Z,3.80
2023-01-10T05:06:41.008Z,3.00
2023-01-10T05:09:12.037Z,3.50
2023-01-10T05:11:40.141Z,3.50
2023-01-10T05:14:08.452Z,3.30
2023-01-10T05:16:38.291Z,3.30
2023-01-10T05:19:06.558Z,3.20
2023-01-10T05:21:34.948Z,4.70
2023-01-10T05:24:03.424Z,3.10
2023-01-10T05:26:31.774Z,3.60
2023-01-10T05:29:00.130Z,2.90
2023-01-10T05:31:28.576Z,3.20
2023-01-10T05:33:58.224Z,3.00
2023-01-10T05:36:26.812Z,3.30
2023-01-10T05:38:56.130Z,3.30
2023-01-10T05:41:24.646Z,3.30
2023-01-10T05:43:54.880Z,3.40
2023-01-10T05:46:23.334Z,3.30
2023-01-10T05:48:53.861Z,3.30
2023-01-10T05:51:24.731Z,3.40
2023-01-10T05:53:53.240Z,3.30
2023-01-10T05:56:22.077Z,3.30
2023-01-10T05:59:00.965Z,3.30
2023-01-10T06:01:34.573Z,3.40
2023-01-10T06:04:02.742Z,3.10
2023-01-10T06:06:34.491Z,4.10
2023-01-10T06:09:03.097Z,2.80
2023-01-10T09:51:17.688Z,3.20
2023-01-10T09:53:48.833Z,3.30
2023-01-10T09:56:19.883Z,3.20
2023-01-10T09:58:57.662Z,3.20
2023-01-10T10:01:31.264Z,3.40
2023-01-10T10:04:07.138Z,3.30
2023-01-10T10:06:36.417Z,3.50
2023-01-10T10:09:07.879Z,3.70
2023-01-10T10:11:47.710Z,3.60
2023-01-10T10:14:32.823Z,3.70
2023-01-10T10:17:17.634Z,4.40
2023-01-10T10:19:59.468Z,3.90
2023-01-10T10:22:39.688Z,3.90
2023-01-10T10:25:21.338Z,3.70
2023-01-10T10:28:09.049Z,3.80
2023-01-10T10:42:25.336Z,4.00
2023-01-10T10:45:01.635Z,4.10
2023-01-10T10:48:23.472Z,4.10
2023-01-10T10:51:26.532Z,4.10
2023-01-10T10:54:03.555Z,4.10
2023-01-10T10:56:52.512Z,4.30
2023-01-10T12:04:04.501Z,4.50
2023-01-10T13:31:49.634Z,5.20
2023-01-10T13:34:35.631Z,5.30
2023-01-10T13:37:15.596Z,5.50
2023-01-10T13:39:49.571Z,5.50
2023-01-10T13:42:46.017Z,5.50
2023-01-10T13:45:23.530Z,5.50
2023-01-10T13:48:32.223Z,5.30
2023-01-10T13:51:17.753Z,5.20
2023-01-10T13:53:59.424Z,5.10
2023-01-10T14:00:22.822Z,5.10
2023-01-10T14:03:06.157Z,5.00
2023-01-10T14:11:25.892Z,5.10
2023-01-10T14:13:59.756Z,4.90
2023-01-10T14:16:37.666Z,5.00
2023-01-10T14:19:11.823Z,5.00
2023-01-10T14:21:56.076Z,4.90
2023-01-10T14:24:29.583Z,4.90
2023-01-10T14:35:47.172Z,5.00
2023-01-10T14:41:43.320Z,4.90
2023-01-10T14:44:24.809Z,5.00
2023-01-10T14:47:05.558Z,5.00
2023-01-10T15:11:23.154Z,5.20
2023-01-10T15:13:56.054Z,4.80
2023-01-10T15:16:26.942Z,5.20
2023-01-10T15:18:58.460Z,5.20
2023-01-10T15:21:29.184Z,5.20
2023-01-10T15:24:00.559Z,5.10
2023-01-10T15:26:34.342Z,5.00
2023-01-10T15:29:15.104Z,4.90
2023-01-10T15:31:53.140Z,4.90
2023-01-10T15:37:26.861Z,4.80
2023-01-10T15:39:59.327Z,4.80
2023-01-10T15:42:33.257Z,4.80
2023-01-10T15:45:21.636Z,4.80
2023-01-10T15:48:00.157Z,4.80
2023-01-10T15:50:32.554Z,4.70
2023-01-10T15:53:04.183Z,4.70
2023-01-10T15:55:46.173Z,4.70
2023-01-10T15:58:24.616Z,4.70
2023-01-10T16:00:58.568Z,4.70
2023-01-10T16:03:51.835Z,4.60
2023-01-10T16:06:25.223Z,4.70
2023-01-10T16:08:56.511Z,4.70
2023-01-10T16:11:48.854Z,4.40
2023-01-10T16:29:43.818Z,4.30
2023-01-10T16:38:30.820Z,4.20
2023-01-10T16:56:21.689Z,3.80
2023-01-10T17:24:46.293Z,3.50
2023-01-10T17:39:19.176Z,3.30
2023-01-10T17:58:19.977Z,3.20
2023-01-10T18:00:51.540Z,3.20
2023-01-10T18:03:34.624Z,3.50
2023-01-10T18:09:16.399Z,3.10
2023-01-10T18:14:44.633Z,2.90
2023-01-10T18:23:19.756Z,2.90
2023-01-10T18:25:57.787Z,2.80
2023-01-10T18:28:40.032Z,2.80
2023-01-10T18:31:14.476Z,2.90
2023-01-10T18:33:43.825Z,2.70
2023-01-10T18:36:17.353Z,5.90
2023-01-10T18:38:51.694Z,2.70
2023-01-10T18:41:23.938Z,2.60
2023-01-10T18:44:00.949Z,2.50
2023-01-10T19:58:41.922Z,2.60
2023-01-10T20:59:20.989Z,1.40
2023-01-10T21:11:31.010Z,0.00
2023-01-10T22:12:23.675Z,1.70
2023-01-10T23:16:33.422Z,1.90
2023-01-10T23:22:00.311Z,1.40
2023-01-10T23:24:30.081Z,1.40
2023-01-10T23:27:00.210Z,1.50
2023-01-10T23:29:43.663Z,1.40
2023-01-10T23:32:12.694Z,1.50
2023-01-10T23:37:29.988Z,1.60
2023-01-10T23:40:09.471Z,1.70
2023-01-10T23:42:41.353Z,1.80
2023-01-10T23:45:22.668Z,1.80
2023-01-10T23:47:52.531Z,2.00
2023-01-10T23:50:23.985Z,1.80
2023-01-10T23:52:56.969Z,1.90
2023-01-10T23:55:28.111Z,1.80
2023-01-10T23:58:13.762Z,1.90
